Time;durP1;ratioP1;P1;durP2;ratioP2;P2;SDS_P1;SDS_P2;PMS_P1;PMS_P2;Temp;Humidity;BMP_temperature;BMP_pressure;BME280_temperature;BME280_humidity;BME280_pressure;Samples;Min_cycle;Max_cycle;Signal;HPM_P1;HPM_P2
2023/08/02 00:02:05;;;;;;;;;4.00;4.00;;;;;21.30;100.00;97571.25;6043638;28;96372;-62
2023/08/02 00:05:09;;;;;;;;;3.00;3.00;;;;;21.31;100.00;97567.34;6040125;28;98491;-62
2023/08/02 00:08:13;;;;;;;;;4.00;4.00;;;;;21.30;100.00;97575.94;6032803;28;98711;-62
2023/08/02 00:11:17;;;;;;;;;2.60;2.60;;;;;21.27;100.00;97579.28;6044284;28;96379;-62
2023/08/02 00:14:20;;;;;;;;;3.25;3.00;;;;;21.34;100.00;97576.88;6043997;28;96693;-62
2023/08/02 00:17:24;;;;;;;;;2.00;2.00;;;;;21.35;100.00;97573.03;6044022;28;96454;-62
2023/08/02 00:20:27;;;;;;;;;3.40;2.60;;;;;21.33;100.00;97570.59;6044234;28;96847;-62
2023/08/02 00:23:32;;;;;;;;;3.00;2.50;;;;;21.33;100.00;97573.34;6043436;28;96599;-62
2023/08/02 00:26:35;;;;;;;;;3.75;3.75;;;;;21.35;100.00;97584.00;6042752;28;96466;-62
2023/08/02 00:29:40;;;;;;;;;3.00;3.00;;;;;21.33;100.00;97592.53;6031104;28;96848;-63
2023/08/02 00:32:44;;;;;;;;;3.00;3.00;;;;;21.27;100.00;97585.59;6016334;28;97909;-62
2023/08/02 00:35:49;;;;;;;;;3.25;3.00;;;;;21.25;100.00;97581.56;6016812;29;97382;-62
2023/08/02 00:38:53;;;;;;;;;5.00;5.00;;;;;21.22;100.00;97591.22;6016975;29;96991;-62
2023/08/02 00:41:56;;;;;;;;;4.00;4.00;;;;;21.24;100.00;97588.19;6021023;28;96325;-62
2023/08/02 00:44:59;;;;;;;;;3.00;3.00;;;;;21.25;100.00;97590.59;6020069;29;96603;-62
2023/08/02 00:48:04;;;;;;;;;4.00;4.00;;;;;21.25;100.00;97582.38;6015165;29;96530;-62
2023/08/02 00:51:08;;;;;;;;;3.00;2.60;;;;;21.29;100.00;97588.81;6019430;29;96470;-62
2023/08/02 00:54:13;;;;;;;;;4.00;4.00;;;;;21.29;100.00;97585.28;6033754;28;96287;-62
2023/08/02 00:57:16;;;;;;;;;4.00;4.00;;;;;21.36;100.00;97594.63;6019838;29;97065;-62
2023/08/02 01:00:20;;;;;;;;;4.00;3.60;;;;;21.36;100.00;97596.53;6034182;28;96793;-62
2023/08/02 01:03:23;;;;;;;;;4.00;4.00;;;;;21.38;100.00;97600.59;6033039;28;96976;-62
2023/08/02 01:06:33;;;;;;;;;3.60;3.60;;;;;21.37;100.00;97601.72;6017143;29;96345;-62
2023/08/02 01:09:44;;;;;;;;;6.00;4.00;;;;;21.39;100.00;97606.88;6024902;28;96779;-62
2023/08/02 01:12:54;;;;;;;;;7.00;6.00;;;;;21.32;100.00;97621.06;6020232;29;97105;-62
2023/08/02 01:15:59;;;;;;;;;5.00;5.00;;;;;21.31;100.00;97613.97;6022867;29;96340;-62
2023/08/02 01:19:08;;;;;;;;;3.00;3.00;;;;;21.33;100.00;97622.69;6038204;28;96430;-62
2023/08/02 01:22:13;;;;;;;;;4.00;3.00;;;;;21.32;100.00;97621.06;6036675;28;96496;-62
2023/08/02 01:25:16;;;;;;;;;6.00;5.60;;;;;21.33;100.00;97624.63;6018480;29;96263;-62
2023/08/02 01:28:23;;;;;;;;;6.00;6.00;;;;;21.28;100.00;97605.59;6021856;29;96878;-62
2023/08/02 01:31:27;;;;;;;;;7.00;6.50;;;;;21.31;100.00;97603.00;6027728;28;98335;-63
2023/08/02 01:34:31;;;;;;;;;5.00;5.00;;;;;21.34;100.00;97620.75;6040674;28;96495;-62
2023/08/02 01:37:36;;;;;;;;;5.00;5.00;;;;;21.32;100.00;97615.59;6046771;28;97502;-63
2023/08/02 01:40:39;;;;;;;;;4.25;4.25;;;;;21.36;100.00;97621.22;6029476;28;97466;-62
2023/08/02 01:43:42;;;;;;;;;5.60;4.60;;;;;21.35;100.00;97611.41;6046890;28;96451;-62
2023/08/02 01:46:46;;;;;;;;;4.00;4.00;;;;;21.28;100.00;97619.28;6044887;28;96524;-62
2023/08/02 01:49:49;;;;;;;;;5.40;5.00;;;;;21.24;100.00;97629.28;6046227;28;96680;-63
2023/08/02 01:52:54;;;;;;;;;4.20;4.00;;;;;21.25;100.00;97626.25;6046501;28;96610;-62
2023/08/02 01:55:57;;;;;;;;;6.00;6.00;;;;;21.15;100.00;97623.81;6041468;28;96405;-62
2023/08/02 01:59:00;;;;;;;;;5.00;5.00;;;;;21.13;100.00;97629.59;6061290;28;96392;-62
2023/08/02 02:02:04;;;;;;;;;5.00;5.00;;;;;21.13;100.00;97621.38;6044474;28;96858;-62
2023/08/02 02:05:07;;;;;;;;;4.00;3.80;;;;;21.08;100.00;97626.97;6046240;28;96619;-62
2023/08/02 02:08:12;;;;;;;;;3.40;3.00;;;;;21.04;100.00;97627.94;6046216;28;96925;-62
2023/08/02 02:11:15;;;;;;;;;4.80;4.80;;;;;21.00;100.00;97633.25;6045969;28;96357;-62
2023/08/02 02:14:18;;;;;;;;;5.80;5.80;;;;;21.01;100.00;97642.28;6044879;28;96529;-62
2023/08/02 02:17:22;;;;;;;;;6.00;5.00;;;;;21.01;100.00;97634.84;6045401;28;96530;-62
2023/08/02 02:20:25;;;;;;;;;4.40;4.40;;;;;20.95;100.00;97641.63;6045907;28;96675;-62
2023/08/02 02:23:30;;;;;;;;;5.00;4.00;;;;;20.94;100.00;97641.94;6056847;28;97374;-62
2023/08/02 02:26:33;;;;;;;;;5.50;5.00;;;;;20.91;100.00;97648.88;6035323;28;96391;-62
2023/08/02 02:29:36;;;;;;;;;5.50;5.50;;;;;20.90;100.00;97650.00;6045002;28;96686;-63
2023/08/02 02:32:40;;;;;;;;;4.00;4.00;;;;;20.89;100.00;97662.06;6059934;28;96512;-62
2023/08/02 02:35:43;;;;;;;;;6.00;5.00;;;;;20.85;100.00;97660.28;6045770;28;96514;-63
2023/08/02 02:38:49;;;;;;;;;6.00;6.00;;;;;20.81;100.00;97662.06;6028945;28;97147;-62
2023/08/02 02:41:52;;;;;;;;;4.60;4.20;;;;;20.81;100.00;97660.13;6045690;28;96397;-63
2023/08/02 02:44:55;;;;;;;;;5.00;4.60;;;;;20.84;100.00;97669.63;6016853;28;96680;-62
2023/08/02 02:47:59;;;;;;;;;4.00;4.00;;;;;20.84;100.00;97670.44;6039433;28;98614;-62
2023/08/02 02:51:02;;;;;;;;;4.00;4.00;;;;;20.79;100.00;97675.25;6041559;28;96311;-62
2023/08/02 02:54:07;;;;;;;;;5.00;4.00;;;;;20.79;100.00;97676.06;6044775;28;96539;-62
2023/08/02 02:57:10;;;;;;;;;6.00;6.00;;;;;20.65;100.00;97651.53;6027827;28;96402;-63
2023/08/02 03:00:14;;;;;;;;;4.75;4.75;;;;;20.74;100.00;97674.28;6043454;28;96508;-62
2023/08/02 03:03:17;;;;;;;;;5.00;4.80;;;;;20.69;100.00;97671.69;6044004;28;97054;-63
2023/08/02 03:06:21;;;;;;;;;7.00;6.00;;;;;20.71;100.00;97674.91;6045267;28;96448;-62
2023/08/02 03:09:25;;;;;;;;;4.60;4.60;;;;;20.69;100.00;97674.41;6045184;28;96519;-62
2023/08/02 03:12:28;;;;;;;;;6.20;5.20;;;;;20.66;100.00;97686.00;6044953;28;97143;-63
2023/08/02 03:15:32;;;;;;;;;6.00;6.00;;;;;20.64;100.00;97684.69;6043927;28;97590;-62
2023/08/02 03:18:35;;;;;;;;;7.00;6.00;;;;;20.63;100.00;97681.16;6044036;28;96604;-62
2023/08/02 03:21:38;;;;;;;;;6.00;6.00;;;;;20.62;100.00;97673.28;6033891;28;98446;-62
2023/08/02 03:24:43;;;;;;;;;6.80;6.20;;;;;20.50;100.00;97670.31;6043534;28;96514;-63
2023/08/02 03:27:46;;;;;;;;;3.00;3.00;;;;;20.59;100.00;97685.66;6029515;28;98823;-63
2023/08/02 03:30:50;;;;;;;;;6.00;5.00;;;;;20.59;100.00;97679.34;6052414;28;96439;-62
2023/08/02 03:33:53;;;;;;;;;5.60;5.00;;;;;20.57;100.00;97667.94;6044304;28;96439;-62
2023/08/02 03:36:56;;;;;;;;;5.40;4.80;;;;;20.60;100.00;97670.03;6044022;28;96353;-62
2023/08/02 03:40:01;;;;;;;;;3.80;3.00;;;;;20.63;100.00;97672.13;6032076;28;98715;-62
2023/08/02 03:43:04;;;;;;;;;3.40;3.00;;;;;20.69;100.00;97673.59;6046344;28;96829;-63
2023/08/02 03:46:07;;;;;;;;;6.00;5.75;;;;;20.73;100.00;97666.38;6043306;28;96464;-63
2023/08/02 03:49:11;;;;;;;;;5.00;5.00;;;;;20.75;100.00;97667.69;6043724;28;96695;-62
2023/08/02 03:52:14;;;;;;;;;5.50;4.50;;;;;20.73;100.00;97666.38;6055181;28;96606;-63
2023/08/02 03:55:19;;;;;;;;;6.00;5.00;;;;;20.68;100.00;97670.06;6026927;28;96851;-63
2023/08/02 03:58:22;;;;;;;;;7.40;7.00;;;;;20.69;100.00;97668.13;6025823;28;96927;-62
2023/08/02 04:01:25;;;;;;;;;6.50;6.00;;;;;20.72;100.00;97667.50;6025358;28;98598;-62
2023/08/02 04:04:28;;;;;;;;;4.00;4.00;;;;;20.77;100.00;97659.94;6043874;28;96657;-62
2023/08/02 04:07:32;;;;;;;;;4.00;4.00;;;;;20.79;100.00;97667.84;6042694;28;96413;-62
2023/08/02 04:10:37;;;;;;;;;5.00;4.00;;;;;20.81;100.00;97667.53;6039505;28;97632;-61
2023/08/02 04:13:40;;;;;;;;;4.00;4.00;;;;;20.82;100.00;97658.97;6024299;28;97041;-61
2023/08/02 04:16:43;;;;;;;;;4.00;4.00;;;;;20.89;100.00;97672.22;6030205;28;97721;-62
2023/08/02 04:19:48;;;;;;;;;6.00;6.00;;;;;20.93;100.00;97675.94;6025588;28;96731;-62
2023/08/02 04:22:51;;;;;;;;;7.00;6.00;;;;;21.05;100.00;97671.47;6026993;28;98479;-62
2023/08/02 04:25:55;;;;;;;;;4.00;3.20;;;;;21.14;100.00;97675.06;6045833;28;96303;-62
2023/08/02 04:29:02;;;;;;;;;5.00;4.00;;;;;21.10;100.00;97676.81;6056528;28;96768;-62
2023/08/02 04:32:06;;;;;;;;;4.00;4.00;;;;;21.08;100.00;97683.72;6042180;28;96534;-62
2023/08/02 04:35:09;;;;;;;;;6.00;6.00;;;;;21.20;100.00;97674.91;6024249;28;97072;-62
2023/08/02 04:38:12;;;;;;;;;6.00;6.00;;;;;21.22;100.00;97673.44;6032132;28;98586;-62
2023/08/02 04:41:17;;;;;;;;;7.40;7.40;;;;;21.31;100.00;97671.53;6042133;28;97059;-62
2023/08/02 04:44:20;;;;;;;;;6.00;5.40;;;;;21.43;100.00;97677.19;6036179;28;98575;-62
2023/08/02 04:47:24;;;;;;;;;5.40;5.00;;;;;21.53;100.00;97670.59;6039681;28;98390;-62
2023/08/02 04:50:27;;;;;;;;;5.20;4.20;;;;;21.56;100.00;97675.41;6038660;28;96611;-63
2023/08/02 04:53:30;;;;;;;;;5.00;5.00;;;;;21.61;100.00;97678.00;6023139;28;96829;-62
2023/08/02 04:56:35;;;;;;;;;6.00;6.00;;;;;21.67;100.00;97687.69;6024510;28;100148;-63
2023/08/02 04:59:39;;;;;;;;;7.00;6.00;;;;;21.74;100.00;97681.72;6023451;28;96752;-62
2023/08/02 05:02:42;;;;;;;;;11.00;9.40;;;;;21.83;100.00;97677.03;6040942;28;96639;-62
2023/08/02 05:05:45;;;;;;;;;7.00;7.00;;;;;21.88;100.00;97676.88;6040005;28;96830;-62
2023/08/02 05:08:48;;;;;;;;;7.00;7.00;;;;;21.98;100.00;97676.56;6042418;28;97089;-63
2023/08/02 05:11:54;;;;;;;;;5.00;5.00;;;;;22.08;100.00;97683.66;6022608;28;96507;-62
2023/08/02 05:14:58;;;;;;;;;9.00;7.80;;;;;22.27;100.00;97695.09;6042990;28;96564;-62
2023/08/02 05:18:01;;;;;;;;;3.00;3.00;;;;;22.32;100.00;97698.47;6040005;28;96303;-62
2023/08/02 05:21:10;;;;;;;;;5.00;4.40;;;;;22.35;100.00;97697.81;6025944;28;96727;-62
2023/08/02 05:24:14;;;;;;;;;5.00;5.00;;;;;22.35;100.00;97705.25;6023641;28;96683;-62
2023/08/02 05:27:19;;;;;;;;;10.00;7.00;;;;;22.56;100.00;97702.59;6040431;28;96636;-63
2023/08/02 05:30:22;;;;;;;;;5.25;5.00;;;;;22.62;100.00;97709.53;6041931;28;97667;-63
2023/08/02 05:33:25;;;;;;;;;7.00;6.40;;;;;22.77;100.00;97700.78;6024875;28;98063;-62
2023/08/02 05:36:28;;;;;;;;;8.00;7.00;;;;;22.84;100.00;97701.88;6025743;28;98451;-63
2023/08/02 05:39:32;;;;;;;;;7.00;6.00;;;;;22.96;100.00;97703.94;6027291;28;96537;-63
2023/08/02 05:42:36;;;;;;;;;4.33;3.00;;;;;22.97;100.00;97697.28;6041145;28;96423;-63
2023/08/02 05:45:39;;;;;;;;;8.00;7.00;;;;;23.02;100.00;97719.06;6045180;28;96467;-63
2023/08/02 05:48:43;;;;;;;;;7.00;6.60;;;;;23.07;100.00;97707.09;6041575;28;96472;-63
2023/08/02 05:51:46;;;;;;;;;6.25;6.00;;;;;23.08;100.00;97709.50;6044705;28;96618;-64
2023/08/02 05:54:50;;;;;;;;;5.00;5.00;;;;;22.97;100.00;97716.50;6042020;28;96290;-63
2023/08/02 05:57:54;;;;;;;;;6.00;5.00;;;;;22.98;100.00;97709.88;6025461;28;96868;-63
2023/08/02 06:00:58;;;;;;;;;5.00;5.00;;;;;23.08;100.00;97725.19;6045487;28;97186;-62
2023/08/02 06:04:01;;;;;;;;;4.00;3.00;;;;;23.13;100.00;97722.25;6057173;28;96721;-63
2023/08/02 06:07:05;;;;;;;;;3.00;3.00;;;;;23.13;100.00;97723.06;6029934;28;96316;-63
2023/08/02 06:10:08;;;;;;;;;3.20;3.20;;;;;23.19;100.00;97716.25;6038613;28;99768;-63
2023/08/02 06:13:13;;;;;;;;;7.00;6.00;;;;;23.30;100.00;97720.25;6045982;28;97048;-63
2023/08/02 06:16:16;;;;;;;;;5.00;4.00;;;;;23.41;100.00;97725.38;6032607;28;96966;-63
2023/08/02 06:19:20;;;;;;;;;3.00;3.00;;;;;23.48;100.00;97729.22;6061176;28;96821;-63
2023/08/02 06:22:23;;;;;;;;;5.00;5.00;;;;;23.61;100.00;97730.09;6060990;28;96361;-62
2023/08/02 06:25:27;;;;;;;;;4.00;4.00;;;;;23.76;100.00;97735.00;6037663;28;96330;-63
2023/08/02 06:28:32;;;;;;;;;4.00;3.40;;;;;23.91;100.00;97726.13;6045139;28;96135;-62
2023/08/02 06:31:35;;;;;;;;;5.00;4.00;;;;;24.04;100.00;97727.00;6028292;28;96775;-63
2023/08/02 06:34:39;;;;;;;;;3.00;3.00;;;;;24.13;100.00;97736.00;6046029;28;96387;-62
2023/08/02 06:37:42;;;;;;;;;5.50;4.50;;;;;24.29;100.00;97739.75;6054380;28;96313;-63
2023/08/02 06:40:45;;;;;;;;;3.00;3.00;;;;;24.24;100.00;97728.16;6033082;28;96710;-62
2023/08/02 06:43:49;;;;;;;;;5.00;4.00;;;;;24.38;100.00;97754.28;6048513;28;96609;-63
2023/08/02 06:46:53;;;;;;;;;3.40;3.40;;;;;24.56;100.00;97752.13;6045008;28;96774;-63
2023/08/02 06:49:56;;;;;;;;;4.33;4.00;;;;;24.68;100.00;97749.38;6041282;28;96826;-62
2023/08/02 06:52:59;;;;;;;;;6.00;5.00;;;;;24.94;100.00;97766.47;6039030;28;96615;-61
2023/08/02 06:56:10;;;;;;;;;5.00;4.40;;;;;25.09;100.00;97761.44;6065849;28;97198;-62
2023/08/02 06:59:15;;;;;;;;;5.00;5.00;;;;;25.30;100.00;97764.91;6044003;28;96533;-62
2023/08/02 07:02:18;;;;;;;;;5.00;4.60;;;;;25.50;100.00;97779.75;6045077;28;96639;-62
2023/08/02 07:05:23;;;;;;;;;6.00;6.00;;;;;25.59;100.00;97769.41;6027693;28;97213;-62
2023/08/02 07:08:26;;;;;;;;;7.00;7.00;;;;;25.78;100.00;97775.94;6032810;28;96769;-62
2023/08/02 07:11:29;;;;;;;;;7.00;6.50;;;;;25.82;100.00;97776.84;6027374;28;96376;-62
2023/08/02 07:14:41;;;;;;;;;3.00;3.00;;;;;25.76;100.00;97777.41;6058924;28;96931;-62
2023/08/02 07:17:44;;;;;;;;;5.80;5.80;;;;;25.84;100.00;97782.84;6013782;28;96395;-63
2023/08/02 07:20:48;;;;;;;;;4.00;4.00;;;;;25.92;100.00;97783.84;6016485;28;96561;-63
2023/08/02 07:23:51;;;;;;;;;5.00;5.00;;;;;26.15;100.00;97776.63;6037163;28;96219;-62
2023/08/02 07:26:55;;;;;;;;;6.00;5.00;;;;;26.58;100.00;97781.47;6023152;28;98426;-62
2023/08/02 07:29:59;;;;;;;;;4.00;4.00;;;;;26.94;100.00;97783.25;6064301;28;98197;-62
2023/08/02 07:33:02;;;;;;;;;4.50;4.00;;;;;26.79;100.00;97805.28;6044364;28;96570;-62
2023/08/02 07:36:13;;;;;;;;;4.00;3.00;;;;;26.91;100.00;97816.34;6039261;28;96635;-63
2023/08/02 07:39:16;;;;;;;;;6.20;5.80;;;;;27.32;100.00;97804.75;6049630;28;96844;-63
2023/08/02 07:42:19;;;;;;;;;7.00;7.00;;;;;27.57;100.00;97811.75;6063452;28;98609;-63
2023/08/02 07:45:24;;;;;;;;;6.40;6.00;;;;;27.65;100.00;97811.91;6058867;28;98610;-62
2023/08/02 07:48:27;;;;;;;;;4.80;4.80;;;;;27.62;100.00;97815.38;6044504;28;96430;-64
2023/08/02 07:51:32;;;;;;;;;7.00;6.50;;;;;27.93;100.00;97826.44;6027666;28;96150;-63
2023/08/02 07:54:35;;;;;;;;;4.00;4.00;;;;;28.04;100.00;97823.91;6044865;28;96873;-63
2023/08/02 07:57:57;;;;;;;;;5.00;4.00;;;;;28.06;100.00;97827.91;6033697;28;96383;-62
2023/08/02 08:01:07;;;;;;;;;5.80;5.00;;;;;28.01;100.00;97823.44;6050048;28;96965;-64
2023/08/02 08:04:11;;;;;;;;;5.40;5.40;;;;;28.08;100.00;97822.00;6017899;28;97203;-63
2023/08/02 08:07:15;;;;;;;;;7.00;7.00;;;;;28.42;100.00;97827.56;6032178;28;98520;-62
2023/08/02 08:10:18;;;;;;;;;6.00;6.00;;;;;28.80;100.00;97815.66;6044628;28;96388;-63
2023/08/02 08:13:21;;;;;;;;;4.00;4.00;;;;;28.96;100.00;97820.31;6044634;28;96331;-63
2023/08/02 08:16:26;;;;;;;;;4.00;3.75;;;;;28.93;100.00;97838.47;6059539;28;96497;-63
2023/08/02 08:19:29;;;;;;;;;6.00;6.00;;;;;29.15;100.00;97832.16;6033273;28;98319;-63
2023/08/02 08:22:33;;;;;;;;;4.20;4.00;;;;;29.00;100.00;97846.94;6044330;28;96670;-63
2023/08/02 08:25:36;;;;;;;;;4.60;4.60;;;;;29.06;100.00;97834.38;6034976;28;96449;-63
2023/08/02 08:28:40;;;;;;;;;5.00;5.00;;;;;28.97;100.00;97830.25;6046425;28;96931;-63
2023/08/02 08:31:45;;;;;;;;;3.50;3.50;;;;;29.03;100.00;97824.00;6044259;28;96745;-63
2023/08/02 08:34:48;;;;;;;;;3.60;3.60;;;;;29.23;100.00;97808.09;6009007;28;98354;-63
2023/08/02 08:37:53;;;;;;;;;5.50;4.50;;;;;29.37;100.00;97810.38;6043663;28;96518;-63
2023/08/02 08:40:57;;;;;;;;;4.00;4.00;;;;;29.46;100.00;97819.25;6043310;28;96740;-63
2023/08/02 08:44:01;;;;;;;;;5.00;4.80;;;;;29.68;100.00;97821.19;6042526;28;97183;-63
2023/08/02 08:47:08;;;;;;;;;4.00;4.00;;;;;29.93;100.00;97830.75;6043366;28;96734;-64
2023/08/02 08:50:11;;;;;;;;;2.60;2.60;;;;;30.17;100.00;97826.72;6057942;28;96755;-64
2023/08/02 08:53:18;;;;;;;;;4.00;4.00;;;;;30.33;100.00;97840.44;6043079;28;96935;-63
2023/08/02 08:56:24;;;;;;;;;5.00;5.00;;;;;30.11;100.00;97840.13;6035442;28;97885;-63
2023/08/02 08:59:27;;;;;;;;;4.60;4.00;;;;;30.01;100.00;97839.97;6028315;28;96751;-63
2023/08/02 09:02:33;;;;;;;;;5.00;4.60;;;;;29.87;100.00;97837.75;6035832;28;98456;-62
2023/08/02 09:05:37;;;;;;;;;5.40;5.00;;;;;29.61;100.00;97840.53;6035267;28;96322;-63
2023/08/02 09:08:43;;;;;;;;;5.40;5.40;;;;;29.64;100.00;97834.22;6020499;28;96788;-63
2023/08/02 09:11:46;;;;;;;;;5.00;5.00;;;;;29.60;100.00;97836.16;6058969;28;96403;-63
2023/08/02 09:14:59;;;;;;;;;5.00;4.00;;;;;29.60;100.00;97848.06;6044547;28;96527;-63
2023/08/02 09:18:04;;;;;;;;;4.00;4.00;;;;;29.51;100.00;97838.38;6044531;28;96382;-62
2023/08/02 09:21:09;;;;;;;;;4.00;4.00;;;;;29.60;100.00;97845.28;6045095;28;96883;-63
2023/08/02 09:24:12;;;;;;;;;2.75;2.75;;;;;29.91;100.00;97846.97;6044724;28;96352;-63
2023/08/02 09:27:17;;;;;;;;;2.60;2.00;;;;;30.10;100.00;97846.84;6044500;28;96349;-63
2023/08/02 09:30:26;;;;;;;;;5.00;5.00;;;;;30.45;100.00;97851.31;6011721;28;98570;-63
2023/08/02 09:33:49;;;;;;;;;2.00;2.00;;;;;30.48;98.85;97853.38;6043851;28;96521;-62
2023/08/02 09:36:52;;;;;;;;;3.00;2.60;;;;;30.44;99.35;97844.97;6047613;28;96874;-63
2023/08/02 09:39:55;;;;;;;;;3.00;3.00;;;;;30.45;100.00;97829.88;6047628;28;96475;-63
2023/08/02 09:42:59;;;;;;;;;3.00;3.00;;;;;30.32;98.23;97828.50;6043218;28;97068;-63
2023/08/02 09:46:02;;;;;;;;;2.60;2.00;;;;;30.57;100.00;97828.06;6035622;28;96749;-64
2023/08/02 09:49:18;;;;;;;;;2.00;2.00;;;;;30.78;93.73;97831.09;6033690;28;96456;-63
2023/08/02 09:52:27;;;;;;;;;2.40;2.40;;;;;30.76;95.29;97825.91;6048281;28;96491;-64
2023/08/02 09:55:31;;;;;;;;;4.00;4.00;;;;;31.02;90.02;97827.00;6033193;28;96360;-63
2023/08/02 09:58:39;;;;;;;;;3.00;3.00;;;;;31.21;88.32;97833.19;6048020;28;96865;-63
2023/08/02 10:01:46;;;;;;;;;3.00;3.00;;;;;31.32;91.20;97822.16;6032350;28;96617;-63
2023/08/02 10:04:55;;;;;;;;;3.60;2.60;;;;;31.51;84.78;97821.91;6047982;28;96413;-64
2023/08/02 10:07:59;;;;;;;;;3.00;2.67;;;;;31.55;87.52;97821.94;6048081;28;96289;-63
2023/08/02 10:11:05;;;;;;;;;3.40;3.40;;;;;31.60;86.89;97824.41;6042746;28;99031;-63
2023/08/02 10:14:10;;;;;;;;;3.80;3.80;;;;;31.65;85.01;97818.47;6047862;28;96464;-63
2023/08/02 10:17:13;;;;;;;;;5.00;4.00;;;;;31.63;85.35;97812.47;6032126;28;97908;-63
2023/08/02 10:20:19;;;;;;;;;2.25;2.25;;;;;31.70;84.54;97815.31;6047668;28;96361;-63
2023/08/02 10:23:23;;;;;;;;;5.00;4.40;;;;;31.82;85.55;97815.00;6047575;28;96434;-63
2023/08/02 10:26:27;;;;;;;;;3.00;3.00;;;;;31.87;85.43;97805.47;6038436;28;96497;-63
2023/08/02 10:29:34;;;;;;;;;4.20;3.60;;;;;31.94;83.41;97803.56;6041872;28;96851;-63
2023/08/02 10:32:38;;;;;;;;;2.00;2.00;;;;;31.62;83.51;97744.81;6051910;28;96097;-63
2023/08/02 10:36:02;;;;;;;;;5.00;5.00;;;;;31.76;81.76;97797.06;6047876;28;96231;-63
2023/08/02 10:39:07;;;;;;;;;2.00;2.00;;;;;31.76;82.35;97791.50;6047070;28;96449;-64
2023/08/02 10:42:10;;;;;;;;;5.50;5.00;;;;;31.95;79.43;97782.06;6055750;28;96360;-63
2023/08/02 10:45:17;;;;;;;;;3.00;3.00;;;;;32.05;81.42;97773.75;6047052;28;96283;-63
2023/08/02 10:48:25;;;;;;;;;2.40;2.40;;;;;32.36;77.57;97774.31;6061886;28;96314;-63
2023/08/02 10:51:31;;;;;;;;;2.50;2.50;;;;;32.71;74.44;97773.66;6038530;28;96537;-63
2023/08/02 10:54:34;;;;;;;;;4.00;3.00;;;;;32.49;75.30;97764.41;6040218;28;96830;-63
2023/08/02 10:57:38;;;;;;;;;2.00;2.00;;;;;32.72;77.02;97759.31;6047335;28;96471;-63
2023/08/02 11:00:41;;;;;;;;;2.00;2.00;;;;;32.67;72.25;97768.88;6046699;28;96671;-63
2023/08/02 11:03:45;;;;;;;;;3.50;3.50;;;;;32.50;72.12;97766.78;6038422;28;96242;-64
2023/08/02 11:06:50;;;;;;;;;4.50;3.75;;;;;32.69;73.46;97748.97;6041958;28;96549;-63
2023/08/02 11:09:54;;;;;;;;;2.00;2.00;;;;;32.91;74.95;97755.38;6058258;28;96337;-64
2023/08/02 11:12:57;;;;;;;;;3.00;3.00;;;;;32.91;69.83;97752.59;6045574;28;96863;-63
2023/08/02 11:16:02;;;;;;;;;3.00;3.00;;;;;33.00;66.99;97755.78;6045381;28;98581;-63
2023/08/02 11:19:09;;;;;;;;;2.00;2.00;;;;;33.25;75.20;97745.47;6046846;28;96338;-64
2023/08/02 11:22:15;;;;;;;;;2.00;1.20;;;;;33.09;68.38;97747.81;6046974;28;96267;-63
2023/08/02 11:25:20;;;;;;;;;2.20;2.00;;;;;33.27;72.35;97754.25;6046516;28;96323;-64
2023/08/02 11:28:26;;;;;;;;;4.00;3.00;;;;;33.39;72.41;97737.06;6052058;28;96527;-64
2023/08/02 11:31:29;;;;;;;;;4.00;3.00;;;;;33.28;69.99;97741.09;6030543;28;96397;-63
2023/08/02 11:34:37;;;;;;;;;2.00;2.00;;;;;33.25;69.86;97734.28;6045711;28;96583;-64
2023/08/02 11:37:41;;;;;;;;;3.00;2.00;;;;;33.42;67.63;97750.25;6030866;28;97280;-63
2023/08/02 11:40:45;;;;;;;;;3.00;2.00;;;;;33.67;71.97;97739.09;6050112;28;96331;-63
2023/08/02 11:43:49;;;;;;;;;3.00;3.00;;;;;34.01;63.45;97738.59;6046616;28;96382;-64
2023/08/02 11:46:53;;;;;;;;;2.00;2.00;;;;;34.12;63.55;97734.56;6046267;28;96238;-63
2023/08/02 11:49:57;;;;;;;;;2.60;2.00;;;;;33.96;64.84;97727.84;6045536;28;96502;-63
2023/08/02 11:53:06;;;;;;;;;2.20;2.20;;;;;33.96;65.90;97725.84;6045549;28;96537;-63
2023/08/02 11:56:09;;;;;;;;;4.00;3.00;;;;;33.96;62.74;97734.22;6054082;28;96749;-63
2023/08/02 11:59:14;;;;;;;;;3.00;3.00;;;;;33.96;62.78;97725.03;6045356;28;96314;-63
2023/08/02 12:02:25;;;;;;;;;5.00;5.00;;;;;33.96;70.46;97733.44;6045504;28;96543;-63
2023/08/02 12:05:28;;;;;;;;;4.00;3.25;;;;;34.03;69.39;97722.19;6030509;28;96391;-63
2023/08/02 12:08:33;;;;;;;;;3.00;3.00;;;;;34.17;58.96;97728.53;6045432;28;96367;-63
2023/08/02 12:11:36;;;;;;;;;3.00;3.00;;;;;34.32;61.80;97720.91;6042822;28;96749;-63
2023/08/02 12:14:39;;;;;;;;;4.50;4.00;;;;;34.60;65.01;97720.75;6038318;28;96384;-63
2023/08/02 12:17:42;;;;;;;;;3.00;3.00;;;;;34.86;61.88;97716.63;6015441;28;96950;-63
2023/08/02 12:20:47;;;;;;;;;3.00;3.00;;;;;34.99;58.86;97712.13;6060104;28;96450;-64
2023/08/02 12:23:53;;;;;;;;;2.00;2.00;;;;;34.73;57.89;97693.94;6045405;28;96290;-64
2023/08/02 12:26:57;;;;;;;;;2.40;2.40;;;;;34.47;56.58;97713.25;6060142;28;96379;-63
2023/08/02 12:30:11;;;;;;;;;2.00;1.00;;;;;34.41;55.32;97704.47;6044054;28;96822;-63
2023/08/02 12:33:15;;;;;;;;;2.00;1.60;;;;;34.33;55.29;97700.13;6044869;28;96724;-64
2023/08/02 12:36:25;;;;;;;;;2.60;2.60;;;;;34.38;55.47;97702.50;6045478;28;96596;-63
2023/08/02 12:39:30;;;;;;;;;3.00;2.00;;;;;34.43;56.53;97688.09;6045229;28;96324;-63
2023/08/02 12:42:33;;;;;;;;;4.40;4.00;;;;;34.17;52.30;97696.97;6044847;28;96372;-63
2023/08/02 12:45:44;;;;;;;;;2.00;2.00;;;;;33.64;55.11;97678.34;6030573;28;98659;-63
2023/08/02 12:48:47;;;;;;;;;2.00;2.00;;;;;33.13;57.89;97684.41;6048920;28;97014;-63
2023/08/02 12:51:51;;;;;;;;;1.40;1.40;;;;;32.67;61.38;97685.16;6055184;28;98708;-64
2023/08/02 12:54:56;;;;;;;;;2.00;1.00;;;;;32.29;64.05;97690.63;6044793;28;96865;-63
2023/08/02 12:58:00;;;;;;;;;4.00;4.00;;;;;32.19;66.33;97673.47;6045287;28;96382;-63
2023/08/02 13:01:03;;;;;;;;;2.00;2.00;;;;;32.30;70.42;97673.50;6044780;28;96459;-63
2023/08/02 13:04:06;;;;;;;;;2.60;2.60;;;;;32.62;70.59;97670.78;6027917;28;98515;-63
2023/08/02 13:07:10;;;;;;;;;1.00;1.00;;;;;32.66;67.21;97675.19;6044691;28;96247;-62
2023/08/02 13:10:14;;;;;;;;;2.20;2.20;;;;;32.46;66.15;97662.75;6032569;28;96703;-63
2023/08/02 13:13:18;;;;;;;;;2.00;2.00;;;;;32.48;68.79;97670.75;6043258;28;97250;-64
2023/08/02 13:16:21;;;;;;;;;2.00;1.20;;;;;32.48;71.20;97657.59;6044133;28;96314;-63
2023/08/02 13:19:24;;;;;;;;;2.00;2.00;;;;;32.93;69.74;97663.66;6044538;28;96347;-62
2023/08/02 13:22:27;;;;;;;;;1.75;1.00;;;;;33.22;61.99;97667.25;6035706;28;96628;-64
2023/08/02 13:25:33;;;;;;;;;3.00;3.00;;;;;33.50;65.41;97668.00;6019463;29;96696;-63
2023/08/02 13:28:36;;;;;;;;;2.75;2.75;;;;;33.73;65.02;97661.97;6037146;28;96476;-63
2023/08/02 13:31:40;;;;;;;;;3.80;3.80;;;;;33.72;49.21;97665.22;6018782;29;98464;-63
2023/08/02 13:34:43;;;;;;;;;1.40;1.00;;;;;33.81;49.19;97657.19;6021335;28;97701;-64
2023/08/02 13:37:47;;;;;;;;;2.00;2.00;;;;;33.68;46.92;97662.41;6042952;28;96649;-63
2023/08/02 13:40:52;;;;;;;;;2.00;2.00;;;;;33.48;48.66;97661.22;6044016;28;96583;-63
2023/08/02 13:43:55;;;;;;;;;1.40;1.40;;;;;33.55;47.61;97654.81;6054992;28;96281;-64
2023/08/02 13:46:58;;;;;;;;;2.00;2.00;;;;;33.59;47.07;97653.63;6044168;28;96370;-63
2023/08/02 13:50:02;;;;;;;;;1.00;1.00;;;;;33.37;42.45;97652.09;6037748;28;96419;-63
2023/08/02 13:53:06;;;;;;;;;2.00;2.00;;;;;33.26;40.86;97652.09;6040446;28;96911;-64
2023/08/02 13:56:10;;;;;;;;;1.00;1.00;;;;;33.09;41.03;97630.53;6032403;28;96675;-63
2023/08/02 13:59:13;;;;;;;;;3.00;2.40;;;;;33.02;41.59;97644.50;6043847;28;97704;-63
2023/08/02 14:02:34;;;;;;;;;1.00;1.00;;;;;32.57;42.73;97623.72;6049684;28;96385;-63
2023/08/02 14:05:38;;;;;;;;;1.00;1.00;;;;;32.46;42.70;97645.22;6057007;28;96565;-63
2023/08/02 14:08:42;;;;;;;;;1.00;1.00;;;;;32.55;43.86;97640.84;6042453;28;98350;-63
2023/08/02 14:11:46;;;;;;;;;1.00;1.00;;;;;32.41;43.80;97637.25;6053550;28;96865;-63
2023/08/02 14:14:49;;;;;;;;;1.50;1.00;;;;;32.37;45.18;97637.25;6054405;28;98084;-62
2023/08/02 14:17:52;;;;;;;;;3.00;3.00;;;;;32.48;42.06;97632.50;6027728;28;96781;-63
2023/08/02 14:20:56;;;;;;;;;1.00;1.00;;;;;32.27;42.46;97620.47;6050689;28;96415;-62